Time,TemperatureF,DewpointF,PressureIn,WindDirection,WindDirectionDegrees,WindSpeedMPH,WindSpeedGustMPH,Humidity,HourlyPrecipIn,Conditions,Clouds,dailyrainin,SoftwareType,DateUTC
2013-02-23 00:01:00,22.0,21.0,-100.00,West,280,4.0,6.0,98,0.00,,,0.00,,2013-02-23 06:01:00,
2013-02-23 00:11:00,22.0,21.0,-100.00,West,270,6.0,6.0,98,0.00,,,0.00,,2013-02-23 06:11:00,
2013-02-23 00:22:00,21.0,21.0,-100.00,West,270,6.0,7.0,98,0.00,,,0.00,,2013-02-23 06:22:00,
2013-02-23 00:31:00,21.0,21.0,-100.00,West,270,6.0,7.0,98,0.00,,,0.00,,2013-02-23 06:31:00,
2013-02-23 00:41:00,22.0,21.0,-100.00,West,260,6.0,7.0,98,0.00,,,0.00,,2013-02-23 06:41:00,
2013-02-23 00:51:00,22.0,21.0,-100.00,WSW,250,6.0,7.0,98,0.00,,,0.00,,2013-02-23 06:51:00,
2013-02-23 01:01:00,22.0,21.0,-100.00,West,260,5.0,7.0,98,0.00,,,0.00,,2013-02-23 07:01:00,
2013-02-23 01:11:00,22.0,21.0,-100.00,WSW,255,6.0,7.0,98,0.00,,,0.00,,2013-02-23 07:11:00,
2013-02-23 01:21:00,22.0,21.0,-100.00,West,260,6.0,7.0,98,0.00,,,0.00,,2013-02-23 07:21:00,
2013-02-23 01:32:00,22.0,21.0,-100.00,West,265,6.0,7.0,98,0.00,,,0.00,,2013-02-23 07:32:00,
2013-02-23 01:41:00,21.0,21.0,-100.00,WSW,250,6.0,7.0,98,0.00,,,0.00,,2013-02-23 07:41:00,
2013-02-23 01:51:00,22.0,21.0,-100.00,West,270,4.0,7.0,98,0.00,,,0.00,,2013-02-23 07:51:00,
2013-02-23 02:01:00,22.0,21.0,-100.00,West,280,5.0,7.0,98,0.00,,,0.00,,2013-02-23 08:01:00,
2013-02-23 02:11:00,22.0,21.0,-100.00,WNW,285,5.0,7.0,98,0.00,,,0.00,,2013-02-23 08:11:00,
2013-02-23 02:21:00,22.0,21.0,-100.00,WNW,290,4.0,7.0,98,0.00,,,0.00,,2013-02-23 08:21:00,
2013-02-23 02:31:00,22.0,21.0,-100.00,WNW,285,4.0,6.0,98,0.00,,,0.00,,2013-02-23 08:31:00,
2013-02-23 02:41:00,21.0,21.0,-100.00,WSW,255,6.0,6.0,98,0.00,,,0.00,,2013-02-23 08:41:00,
2013-02-23 02:52:00,21.0,21.0,-100.00,West,260,6.0,7.0,98,0.00,,,0.00,,2013-02-23 08:52:00,
2013-02-23 03:01:00,21.0,21.0,-100.00,WSW,245,7.0,9.0,98,0.00,,,0.00,,2013-02-23 09:01:00,
2013-02-23 03:11:00,21.0,21.0,-100.00,WSW,255,7.0,11.0,98,0.00,,,0.00,,2013-02-23 09:11:00,
2013-02-23 03:31:00,21.0,19.0,-100.00,West,260,7.0,9.0,98,0.00,,,0.00,,2013-02-23 09:31:00,
2013-02-23 03:41:00,21.0,19.0,-100.00,West,275,9.0,11.0,98,0.00,,,0.00,,2013-02-23 09:41:00,
2013-02-23 03:51:00,20.0,19.0,-100.00,West,275,6.0,11.0,98,0.00,,,0.00,,2013-02-23 09:51:00,
2013-02-23 04:01:00,20.0,19.0,-100.00,West,275,7.0,9.0,98,0.00,,,0.00,,2013-02-23 10:01:00,
2013-02-23 04:11:00,20.0,19.0,-100.00,West,275,7.0,10.0,98,0.00,,,0.00,,2013-02-23 10:11:00,
2013-02-23 04:21:00,20.0,19.0,-100.00,West,265,8.0,10.0,98,0.00,,,0.00,,2013-02-23 10:21:00,
2013-02-23 04:31:00,20.0,19.0,-100.00,West,275,8.0,11.0,98,0.00,,,0.00,,2013-02-23 10:31:00,
2013-02-23 04:41:00,20.0,19.0,-100.00,WNW,285,7.0,9.0,98,0.00,,,0.00,,2013-02-23 10:41:00,
2013-02-23 04:51:00,20.0,19.0,-100.00,West,280,7.0,9.0,98,0.00,,,0.00,,2013-02-23 10:51:00,
2013-02-23 05:02:00,20.0,19.0,-100.00,West,280,7.0,9.0,98,0.00,,,0.00,,2013-02-23 11:02:00,
2013-02-23 05:11:00,20.0,19.0,-100.00,WNW,285,7.0,10.0,98,0.00,,,0.00,,2013-02-23 11:11:00,
2013-02-23 05:21:00,20.0,19.0,-100.00,West,275,8.0,10.0,98,0.00,,,0.00,,2013-02-23 11:21:00,
2013-02-23 05:32:00,20.0,19.0,-100.00,West,270,11.0,13.0,98,0.00,,,0.00,,2013-02-23 11:32:00,
2013-02-23 05:41:00,20.0,19.0,-100.00,West,265,9.0,12.0,98,0.00,,,0.00,,2013-02-23 11:41:00,
2013-02-23 05:52:00,20.0,19.0,-100.00,West,275,9.0,13.0,98,0.00,,,0.00,,2013-02-23 11:52:00,
2013-02-23 06:02:00,20.0,19.0,-100.00,West,280,7.0,11.0,99,0.00,,,0.00,,2013-02-23 12:02:00,
2013-02-23 06:11:00,20.0,19.0,-100.00,West,280,7.0,11.0,99,0.00,,,0.00,,2013-02-23 12:11:00,
2013-02-23 06:21:00,20.0,19.0,-100.00,WNW,290,7.0,9.0,99,0.00,,,0.00,,2013-02-23 12:21:00,
2013-02-23 07:32:00,21.0,21.0,-100.00,WNW,300,7.0,9.0,100,0.00,,,0.00,,2013-02-23 13:32:00,
2013-02-23 07:42:00,21.0,21.0,-100.00,WNW,300,6.0,9.0,100,0.00,,,0.00,,2013-02-23 13:42:00,
2013-02-23 07:52:00,21.0,21.0,-100.00,WNW,300,7.0,9.0,100,0.00,,,0.00,,2013-02-23 13:52:00,
2013-02-23 08:02:00,21.0,21.0,-100.00,NW,305,7.0,9.0,100,0.00,,,0.00,,2013-02-23 14:02:00,
2013-02-23 08:11:00,21.0,21.0,-100.00,WNW,300,6.0,9.0,100,0.00,,,0.00,,2013-02-23 14:11:00,
2013-02-23 08:21:00,21.0,21.0,-100.00,NW,305,6.0,9.0,100,0.00,,,0.00,,2013-02-23 14:21:00,
2013-02-23 08:32:00,21.0,21.0,-100.00,WNW,300,7.0,9.0,100,0.00,,,0.00,,2013-02-23 14:32:00,
2013-02-23 08:41:00,22.0,21.0,-100.00,WNW,295,7.0,9.0,100,0.00,,,0.00,,2013-02-23 14:41:00,
2013-02-23 08:52:00,22.0,21.0,-100.00,NW,305,6.0,7.0,100,0.00,,,0.00,,2013-02-23 14:52:00,
2013-02-23 09:11:00,23.0,23.0,-100.00,NW,325,4.0,7.0,99,0.00,,,0.00,,2013-02-23 15:11:00,
2013-02-23 09:21:00,23.0,23.0,-100.00,NW,310,4.0,6.0,99,0.00,,,0.00,,2013-02-23 15:21:00,
2013-02-23 09:32:00,24.0,23.0,-100.00,NNW,340,3.0,6.0,99,0.00,,,0.00,,2013-02-23 15:32:00,
2013-02-23 09:41:00,24.0,23.0,-100.00,NNW,340,4.0,6.0,98,0.00,,,0.00,,2013-02-23 15:41:00,
2013-02-23 09:51:00,25.0,23.0,-100.00,NW,325,4.0,7.0,97,0.00,,,0.00,,2013-02-23 15:51:00,
2013-02-23 10:01:00,26.0,25.0,-100.00,NW,320,3.0,6.0,96,0.00,,,0.00,,2013-02-23 16:01:00,
2013-02-23 10:11:00,26.0,25.0,-100.00,NW,325,2.0,5.0,94,0.00,,,0.00,,2013-02-23 16:11:00,
2013-02-23 10:21:00,27.0,25.0,-100.00,NNE,30,6.0,9.0,91,0.00,,,0.00,,2013-02-23 16:21:00,
2013-02-23 10:31:00,26.0,23.0,-100.00,NNW,345,6.0,10.0,89,0.00,,,0.00,,2013-02-23 16:31:00,
2013-02-23 10:42:00,27.0,23.0,-100.00,North,0,7.0,10.0,88,0.00,,,0.00,,2013-02-23 16:42:00,
2013-02-23 10:51:00,28.0,25.0,-100.00,North,350,3.0,9.0,86,0.00,,,0.00,,2013-02-23 16:51:00,
2013-02-23 11:01:00,28.0,23.0,-100.00,NW,320,4.0,6.0,84,0.00,,,0.00,,2013-02-23 17:01:00,
2013-02-23 11:11:00,29.0,25.0,-100.00,NNW,340,2.0,6.0,83,0.00,,,0.00,,2013-02-23 17:11:00,
2013-02-23 11:21:00,29.0,23.0,-100.00,NW,315,4.0,6.0,80,0.00,,,0.00,,2013-02-23 17:21:00,
2013-02-23 11:31:00,30.0,25.0,-100.00,WNW,295,2.0,4.0,78,0.00,,,0.00,,2013-02-23 17:31:00,
2013-02-23 11:41:00,31.0,25.0,-100.00,North,0,1.0,6.0,76,0.00,,,0.00,,2013-02-23 17:41:00,
2013-02-23 11:52:00,32.0,25.0,-100.00,NW,310,1.0,4.0,74,0.00,,,0.00,,2013-02-23 17:52:00,
2013-02-23 12:01:00,35.0,27.0,-100.00,WSW,250,2.0,4.0,71,0.00,,,0.00,,2013-02-23 18:01:00,
2013-02-23 12:12:00,36.0,25.0,-100.00,West,270,4.0,7.0,65,0.00,,,0.00,,2013-02-23 18:12:00,
2013-02-23 12:21:00,35.0,23.0,-100.00,West,280,1.0,6.0,63,0.00,,,0.00,,2013-02-23 18:21:00,
2013-02-23 12:31:00,38.0,25.0,-100.00,West,260,1.0,4.0,60,0.00,,,0.00,,2013-02-23 18:31:00,
2013-02-23 12:41:00,40.0,25.0,-100.00,SW,230,1.0,2.0,55,0.00,,,0.00,,2013-02-23 18:41:00,
2013-02-23 12:51:00,35.0,19.0,-100.00,West,270,4.0,6.0,54,0.00,,,0.00,,2013-02-23 18:51:00,
2013-02-23 13:01:00,38.0,23.0,-100.00,WSW,255,2.0,6.0,56,0.00,,,0.00,,2013-02-23 19:01:00,
2013-02-23 13:11:00,35.0,21.0,-100.00,NW,310,2.0,4.0,56,0.00,,,0.00,,2013-02-23 19:11:00,
2013-02-23 13:21:00,41.0,25.0,-100.00,WSW,240,4.0,5.0,52,0.00,,,0.00,,2013-02-23 19:21:00,
2013-02-23 13:32:00,41.0,23.0,-100.00,West,260,4.0,6.0,49,0.00,,,0.00,,2013-02-23 19:32:00,
2013-02-23 13:41:00,42.0,23.0,-100.00,West,265,4.0,5.0,48,0.00,,,0.00,,2013-02-23 19:41:00,
2013-02-23 13:51:00,42.0,23.0,-100.00,WSW,250,3.0,5.0,47,0.00,,,0.00,,2013-02-23 19:51:00,
2013-02-23 14:01:00,43.0,23.0,-100.00,WSW,255,2.0,4.0,46,0.00,,,0.00,,2013-02-23 20:01:00,
2013-02-23 14:11:00,38.0,19.0,-100.00,WSW,240,1.0,2.0,48,0.00,,,0.00,,2013-02-23 20:11:00,
2013-02-23 14:21:00,35.0,19.0,-100.00,WSW,240,1.0,2.0,53,0.00,,,0.00,,2013-02-23 20:21:00,
2013-02-23 14:32:00,38.0,21.0,-100.00,West,270,2.0,4.0,53,0.00,,,0.00,,2013-02-23 20:32:00,
2013-02-23 14:41:00,38.0,21.0,-100.00,West,265,4.0,4.0,52,0.00,,,0.00,,2013-02-23 20:41:00,
2013-02-23 14:52:00,39.0,23.0,-100.00,West,260,2.0,4.0,51,0.00,,,0.00,,2013-02-23 20:52:00,
2013-02-23 15:01:00,38.0,21.0,-100.00,SW,225,2.0,4.0,51,0.00,,,0.00,,2013-02-23 21:01:00,
2013-02-23 15:11:00,36.0,21.0,-100.00,SSE,165,1.0,4.0,53,0.00,,,0.00,,2013-02-23 21:11:00,
2013-02-23 15:22:00,36.0,21.0,-100.00,South,180,0.0,2.0,54,0.00,,,0.00,,2013-02-23 21:22:00,
2013-02-23 15:32:00,35.0,19.0,-100.00,SSW,195,1.0,1.0,55,0.00,,,0.00,,2013-02-23 21:32:00,
2013-02-23 15:41:00,32.0,19.0,-100.00,South,185,2.0,2.0,58,0.00,,,0.00,,2013-02-23 21:41:00,
2013-02-23 15:51:00,33.0,21.0,-100.00,West,270,3.0,4.0,59,0.00,,,0.00,,2013-02-23 21:51:00,
2013-02-23 16:01:00,33.0,21.0,-100.00,WSW,250,6.0,7.0,60,0.00,,,0.00,,2013-02-23 22:01:00,
2013-02-23 16:11:00,34.0,23.0,-100.00,West,265,2.0,10.0,62,0.00,,,0.00,,2013-02-23 22:11:00,
2013-02-23 16:21:00,35.0,23.0,-100.00,WSW,245,7.0,8.0,61,0.00,,,0.00,,2013-02-23 22:21:00,
2013-02-23 16:31:00,34.0,23.0,-100.00,WSW,240,8.0,10.0,63,0.00,,,0.00,,2013-02-23 22:31:00,
2013-02-23 16:41:00,33.0,23.0,-100.00,WSW,240,9.0,10.0,65,0.00,,,0.00,,2013-02-23 22:41:00,
2013-02-23 16:51:00,33.0,23.0,-100.00,WSW,255,7.0,10.0,66,0.00,,,0.00,,2013-02-23 22:51:00,
2013-02-23 17:01:00,32.0,21.0,-100.00,WSW,250,8.0,9.0,67,0.00,,,0.00,,2013-02-23 23:01:00,
2013-02-23 17:11:00,31.0,21.0,-100.00,WSW,250,7.0,9.0,68,0.00,,,0.00,,2013-02-23 23:11:00,
2013-02-23 17:21:00,31.0,23.0,-100.00,WSW,250,7.0,9.0,70,0.00,,,0.00,,2013-02-23 23:21:00,
2013-02-23 17:31:00,30.0,23.0,-100.00,WSW,245,7.0,11.0,72,0.00,,,0.00,,2013-02-23 23:31:00,
2013-02-23 17:41:00,29.0,21.0,-100.00,SW,235,7.0,9.0,74,0.00,,,0.00,,2013-02-23 23:41:00,
2013-02-23 17:52:00,29.0,21.0,-100.00,WSW,245,6.0,9.0,75,0.00,,,0.00,,2013-02-23 23:52:00,
2013-02-23 18:01:00,28.0,21.0,-100.00,WSW,245,6.0,10.0,76,0.00,,,0.00,,2013-02-24 00:01:00,
2013-02-23 18:11:00,27.0,21.0,-100.00,West,260,9.0,10.0,78,0.00,,,0.00,,2013-02-24 00:11:00,
2013-02-23 18:22:00,26.0,19.0,-100.00,WSW,250,9.0,11.0,79,0.00,,,0.00,,2013-02-24 00:22:00,
2013-02-23 18:32:00,25.0,19.0,-100.00,WSW,255,9.0,13.0,80,0.00,,,0.00,,2013-02-24 00:32:00,
2013-02-23 18:42:00,24.0,18.0,-100.00,WSW,250,7.0,12.0,81,0.00,,,0.00,,2013-02-24 00:42:00,
2013-02-23 18:52:00,22.0,18.0,-100.00,WSW,240,6.0,9.0,82,0.00,,,0.00,,2013-02-24 00:52:00,
2013-02-23 19:01:00,21.0,16.0,-100.00,SW,230,5.0,7.0,82,0.00,,,0.00,,2013-02-24 01:01:00,
2013-02-23 19:11:00,21.0,16.0,-100.00,SW,225,4.0,6.0,83,0.00,,,0.00,,2013-02-24 01:11:00,
2013-02-23 19:22:00,20.0,16.0,-100.00,SW,230,6.0,7.0,84,0.00,,,0.00,,2013-02-24 01:22:00,
2013-02-23 19:31:00,19.0,16.0,-100.00,SW,235,6.0,8.0,84,0.00,,,0.00,,2013-02-24 01:31:00,
2013-02-23 19:41:00,19.0,16.0,-100.00,SW,220,4.0,7.0,85,0.00,,,0.00,,2013-02-24 01:41:00,
2013-02-23 19:51:00,19.0,16.0,-100.00,SW,230,4.0,6.0,86,0.00,,,0.00,,2013-02-24 01:51:00,
2013-02-23 20:01:00,18.0,14.0,-100.00,SW,215,3.0,5.0,86,0.00,,,0.00,,2013-02-24 02:01:00,
2013-02-23 20:11:00,17.0,14.0,-100.00,SW,220,3.0,4.0,87,0.00,,,0.00,,2013-02-24 02:11:00,
2013-02-23 20:21:00,17.0,14.0,-100.00,SSW,210,3.0,4.0,88,0.00,,,0.00,,2013-02-24 02:21:00,
2013-02-23 20:32:00,17.0,14.0,-100.00,SSW,210,2.0,4.0,89,0.00,,,0.00,,2013-02-24 02:32:00,
2013-02-23 20:41:00,16.0,12.0,-100.00,SW,220,3.0,4.0,89,0.00,,,0.00,,2013-02-24 02:41:00,
2013-02-23 20:52:00,16.0,14.0,-100.00,SW,230,4.0,4.0,90,0.00,,,0.00,,2013-02-24 02:52:00,
2013-02-23 21:01:00,16.0,14.0,-100.00,SW,230,4.0,5.0,91,0.00,,,0.00,,2013-02-24 03:01:00,
2013-02-23 21:11:00,16.0,14.0,-100.00,SW,225,4.0,6.0,92,0.00,,,0.00,,2013-02-24 03:11:00,
2013-02-23 21:21:00,14.0,12.0,-100.00,SW,230,4.0,6.0,92,0.00,,,0.00,,2013-02-24 03:21:00,
2013-02-23 21:31:00,15.0,12.0,-100.00,WSW,245,6.0,7.0,93,0.00,,,0.00,,2013-02-24 03:31:00,
2013-02-23 21:42:00,14.0,12.0,-100.00,WSW,245,6.0,9.0,94,0.00,,,0.00,,2013-02-24 03:42:00,
2013-02-23 21:52:00,14.0,12.0,-100.00,WSW,240,6.0,7.0,94,0.00,,,0.00,,2013-02-24 03:52:00,
2013-02-23 22:01:00,13.0,12.0,-100.00,WSW,240,1.0,6.0,94,0.00,,,0.00,,2013-02-24 04:01:00,
2013-02-23 22:11:00,14.0,12.0,-100.00,SSW,195,1.0,2.0,94,0.00,,,0.00,,2013-02-24 04:11:00,
2013-02-23 22:21:00,15.0,14.0,-100.00,SSW,200,0.0,1.0,95,0.00,,,0.00,,2013-02-24 04:21:00,
2013-02-23 22:31:00,15.0,14.0,-100.00,SSW,200,2.0,2.0,95,0.00,,,0.00,,2013-02-24 04:31:00,
2013-02-23 22:41:00,14.0,12.0,-100.00,West,260,4.0,4.0,96,0.00,,,0.00,,2013-02-24 04:41:00,
2013-02-23 22:51:00,13.0,12.0,-100.00,West,260,3.0,4.0,96,0.00,,,0.00,,2013-02-24 04:51:00,
2013-02-23 23:01:00,12.0,10.0,-100.00,WSW,250,2.0,4.0,96,0.00,,,0.00,,2013-02-24 05:01:00,
2013-02-23 23:11:00,11.0,10.0,-100.00,SW,235,2.0,4.0,96,0.00,,,0.00,,2013-02-24 05:11:00,
2013-02-23 23:22:00,11.0,10.0,-100.00,SW,230,2.0,3.0,96,0.00,,,0.00,,2013-02-24 05:22:00,
2013-02-23 23:32:00,10.0,9.0,-100.00,WSW,240,6.0,7.0,97,0.00,,,0.00,,2013-02-24 05:32:00,
2013-02-23 23:42:00,10.0,9.0,-100.00,WSW,245,6.0,7.0,97,0.00,,,0.00,,2013-02-24 05:42:00,
2013-02-23 23:52:00,11.0,10.0,-100.00,WSW,240,4.0,6.0,97,0.00,,,0.00,,2013-02-24 05:52:00,